Time;durP1;ratioP1;P1;durP2;ratioP2;P2;SDS_P1;SDS_P2;PMS_P1;PMS_P2;Temp;Humidity;BMP_temperature;BMP_pressure;BME280_temperature;BME280_humidity;BME280_pressure;Samples;Min_cycle;Max_cycle;Signal;HPM_P1;HPM_P2
2022/09/18 00:01:58;;;;;;;;;;;21.30;84.30;;;;;;5068429;28;20011;-63
2022/09/18 00:04:24;;;;;;;;;;;21.00;84.20;;;;;;5053704;28;20294;-62
2022/09/18 00:06:49;;;;;;;;;;;21.10;84.40;;;;;;5072157;28;19928;-63
2022/09/18 00:09:15;;;;;;;;;;;21.20;84.70;;;;;;5073711;28;19924;-63
2022/09/18 00:11:42;;;;;;;;;;;21.10;84.60;;;;;;5071976;28;19932;-62
2022/09/18 00:14:08;;;;;;;;;;;20.90;84.20;;;;;;5069461;28;19977;-62
2022/09/18 00:16:33;;;;;;;;;;;21.10;84.40;;;;;;5064465;28;20015;-63
2022/09/18 00:18:59;;;;;;;;;;;21.00;84.30;;;;;;5072944;28;20038;-65
2022/09/18 00:21:25;;;;;;;;;;;20.90;84.20;;;;;;5071524;28;19947;-65
2022/09/18 00:23:54;;;;;;;;;;;21.00;84.30;;;;;;5072859;28;19925;-66
2022/09/18 00:26:19;;;;;;;;;;;21.10;84.30;;;;;;5069936;28;19982;-62
2022/09/18 00:28:45;;;;;;;;;;;20.90;84.20;;;;;;5070560;28;19987;-63
2022/09/18 00:31:12;;;;;;;;;;;21.10;84.20;;;;;;5070454;28;19925;-62
2022/09/18 00:33:38;;;;;;;;;;;21.10;84.30;;;;;;5055071;28;19921;-63
2022/09/18 00:36:05;;;;;;;;;;;21.10;84.30;;;;;;5071477;28;19947;-65
2022/09/18 00:38:31;;;;;;;;;;;21.20;84.40;;;;;;5071738;28;19931;-63
2022/09/18 00:40:57;;;;;;;;;;;21.10;84.30;;;;;;5071421;28;20010;-62
2022/09/18 00:43:23;;;;;;;;;;;20.90;84.20;;;;;;5072818;28;19932;-62
2022/09/18 00:45:51;;;;;;;;;;;21.30;84.30;;;;;;5072900;28;19924;-63
2022/09/18 00:48:17;;;;;;;;;;;20.90;84.20;;;;;;5069543;28;19925;-63
2022/09/18 00:50:43;;;;;;;;;;;20.90;84.20;;;;;;5073650;28;19947;-63
2022/09/18 00:53:09;;;;;;;;;;;20.90;84.10;;;;;;5070274;28;19975;-63
2022/09/18 00:55:37;;;;;;;;;;;21.10;84.20;;;;;;5070838;28;19924;-65
2022/09/18 00:58:02;;;;;;;;;;;21.10;84.20;;;;;;5036033;28;20382;-65
2022/09/18 01:00:28;;;;;;;;;;;20.90;84.00;;;;;;5068985;28;19985;-63
2022/09/18 01:02:54;;;;;;;;;;;21.10;84.10;;;;;;5068829;28;20004;-62
2022/09/18 01:05:40;;;;;;;;;;;21.20;84.00;;;;;;5076671;28;19928;-65
2022/09/18 01:08:06;;;;;;;;;;;;;;;;;;5062967;28;19936;-64
2022/09/18 01:10:38;;;;;;;;;;;21.00;84.10;;;;;;5073672;28;20370;-64
2022/09/18 01:13:06;;;;;;;;;;;20.90;84.00;;;;;;5056448;28;19924;-63
2022/09/18 01:15:40;;;;;;;;;;;20.80;83.10;;;;;;5076388;28;19932;-63
2022/09/18 01:18:17;;;;;;;;;;;20.90;84.00;;;;;;5076319;28;19924;-62
2022/09/18 01:20:54;;;;;;;;;;;21.20;84.20;;;;;;5074891;28;19924;-62
2022/09/18 01:23:38;;;;;;;;;;;21.20;84.20;;;;;;5073860;28;19924;-62
2022/09/18 01:26:04;;;;;;;;;;;;;;;;;;5076996;28;20360;-62
2022/09/18 01:28:36;;;;;;;;;;;20.80;84.20;;;;;;5062966;28;19924;-62
2022/09/18 01:31:02;;;;;;;;;;;;;;;;;;5069575;28;20298;-66
2022/09/18 01:33:35;;;;;;;;;;;20.90;84.20;;;;;;5075911;28;20027;-63
2022/09/18 01:36:02;;;;;;;;;;;20.80;84.10;;;;;;5073670;28;20362;-63
2022/09/18 01:38:28;;;;;;;;;;;20.90;84.20;;;;;;5069531;28;19924;-63
2022/09/18 01:40:59;;;;;;;;;;;21.00;84.30;;;;;;5073396;28;19928;-62
2022/09/18 01:43:25;;;;;;;;;;;20.80;84.10;;;;;;5055801;28;20011;-62
2022/09/18 01:45:52;;;;;;;;;;;20.80;84.20;;;;;;5058477;28;20375;-62
2022/09/18 01:48:27;;;;;;;;;;;20.90;84.30;;;;;;5074516;28;19924;-63
2022/09/18 01:50:57;;;;;;;;;;;20.70;84.20;;;;;;5055404;28;19924;-63
2022/09/18 01:53:25;;;;;;;;;;;21.00;84.40;;;;;;5073916;28;20447;-62
2022/09/18 01:55:52;;;;;;;;;;;20.70;84.20;;;;;;5070170;28;19945;-62
2022/09/18 01:58:19;;;;;;;;;;;21.10;84.50;;;;;;5057610;28;19924;-63
2022/09/18 02:00:49;;;;;;;;;;;21.00;84.40;;;;;;5073960;28;19925;-66
2022/09/18 02:03:17;;;;;;;;;;;21.10;84.40;;;;;;5073515;28;20302;-63
2022/09/18 02:05:44;;;;;;;;;;;20.90;84.30;;;;;;5073186;28;20377;-63
2022/09/18 02:08:10;;;;;;;;;;;20.80;84.20;;;;;;5075167;28;20305;-64
2022/09/18 02:10:37;;;;;;;;;;;20.90;84.50;;;;;;5074835;28;19924;-63
2022/09/18 02:13:03;;;;;;;;;;;21.00;84.30;;;;;;5070223;28;19924;-63
2022/09/18 02:15:28;;;;;;;;;;;20.90;84.30;;;;;;5073807;28;19966;-62
2022/09/18 02:17:58;;;;;;;;;;;20.80;84.30;;;;;;5057081;28;19924;-62
2022/09/18 02:20:25;;;;;;;;;;;20.80;84.20;;;;;;5073754;28;19963;-63
2022/09/18 02:22:51;;;;;;;;;;;20.60;84.10;;;;;;5060789;28;19924;-61
2022/09/18 02:25:18;;;;;;;;;;;20.90;84.30;;;;;;5074695;28;19932;-62
2022/09/18 02:27:44;;;;;;;;;;;20.90;84.40;;;;;;5066577;28;19932;-62
2022/09/18 02:30:10;;;;;;;;;;;20.80;84.40;;;;;;5055691;28;19929;-63
2022/09/18 02:32:36;;;;;;;;;;;20.80;84.40;;;;;;5067550;28;19971;-64
2022/09/18 02:35:02;;;;;;;;;;;20.80;84.40;;;;;;5072100;28;19925;-62
2022/09/18 02:37:37;;;;;;;;;;;20.80;84.30;;;;;;5073319;28;20017;-62
2022/09/18 02:40:12;;;;;;;;;;;20.90;84.40;;;;;;5071891;28;20417;-65
2022/09/18 02:42:42;;;;;;;;;;;21.00;84.40;;;;;;5071093;28;20081;-62
2022/09/18 02:45:21;;;;;;;;;;;20.80;84.30;;;;;;5054239;28;19932;-63
2022/09/18 02:48:02;;;;;;;;;;;20.80;84.30;;;;;;5071194;28;19924;-62
2022/09/18 02:50:27;;;;;;;;;;;20.80;83.50;;;;;;5074980;28;20023;-62
2022/09/18 02:53:00;;;;;;;;;;;20.70;84.30;;;;;;5071531;28;19971;-62
2022/09/18 02:55:30;;;;;;;;;;;20.70;84.30;;;;;;5071755;28;19977;-62
2022/09/18 02:57:58;;;;;;;;;;;20.70;84.20;;;;;;5054142;28;20015;-62
2022/09/18 03:00:24;;;;;;;;;;;20.90;84.40;;;;;;5056373;28;19947;-63
2022/09/18 03:02:50;;;;;;;;;;;20.90;84.30;;;;;;5072472;28;19991;-62
2022/09/18 03:05:16;;;;;;;;;;;20.70;84.20;;;;;;5071683;28;19973;-63
2022/09/18 03:07:42;;;;;;;;;;;20.70;84.20;;;;;;5074190;28;19948;-63
2022/09/18 03:10:08;;;;;;;;;;;20.80;84.30;;;;;;5074457;28;19925;-63
2022/09/18 03:12:34;;;;;;;;;;;20.70;84.20;;;;;;5056140;28;19925;-63
2022/09/18 03:14:59;;;;;;;;;;;20.60;84.20;;;;;;5072558;28;19936;-62
2022/09/18 03:17:25;;;;;;;;;;;20.70;84.30;;;;;;5071670;28;20424;-63
2022/09/18 03:19:51;;;;;;;;;;;20.70;84.30;;;;;;5074496;28;19924;-62
2022/09/18 03:22:16;;;;;;;;;;;20.70;84.40;;;;;;5072167;28;19925;-63
2022/09/18 03:24:42;;;;;;;;;;;20.80;84.40;;;;;;5073672;28;19924;-63
2022/09/18 03:27:09;;;;;;;;;;;20.50;84.20;;;;;;5067007;28;19925;-63
2022/09/18 03:29:35;;;;;;;;;;;20.80;84.40;;;;;;5065000;28;19927;-63
2022/09/18 03:32:00;;;;;;;;;;;20.70;84.40;;;;;;5072096;28;19924;-63
2022/09/18 03:34:26;;;;;;;;;;;20.70;84.40;;;;;;5072084;28;20014;-63
2022/09/18 03:36:51;;;;;;;;;;;20.70;84.40;;;;;;5068823;28;19924;-68
2022/09/18 03:39:17;;;;;;;;;;;20.60;84.40;;;;;;5066974;28;20358;-68
2022/09/18 03:41:43;;;;;;;;;;;20.80;84.50;;;;;;5071982;28;19928;-63
2022/09/18 03:44:08;;;;;;;;;;;20.80;84.50;;;;;;5072893;28;19925;-63
2022/09/18 03:46:34;;;;;;;;;;;20.90;84.60;;;;;;5072297;28;19925;-63
2022/09/18 03:49:00;;;;;;;;;;;20.80;84.60;;;;;;5072135;28;19981;-63
2022/09/18 03:51:25;;;;;;;;;;;20.80;84.60;;;;;;5054564;28;19968;-62
2022/09/18 03:53:51;;;;;;;;;;;20.60;84.40;;;;;;5071996;28;19925;-62
2022/09/18 03:56:16;;;;;;;;;;;20.70;84.50;;;;;;5071787;28;20003;-65
2022/09/18 03:58:42;;;;;;;;;;;20.70;84.50;;;;;;5068979;28;20347;-65
2022/09/18 04:01:08;;;;;;;;;;;20.60;84.50;;;;;;5071229;28;20312;-65
2022/09/18 04:03:33;;;;;;;;;;;20.60;84.50;;;;;;5071934;28;19925;-62
2022/09/18 04:05:59;;;;;;;;;;;20.70;84.60;;;;;;5071823;28;19935;-62
2022/09/18 04:08:25;;;;;;;;;;;20.60;84.50;;;;;;5071962;28;20355;-68
2022/09/18 04:10:51;;;;;;;;;;;20.80;84.70;;;;;;5060575;28;20064;-66
2022/09/18 04:13:16;;;;;;;;;;;20.60;84.50;;;;;;5074028;28;19924;-62
2022/09/18 04:15:44;;;;;;;;;;;20.70;84.60;;;;;;5073212;28;19924;-62
2022/09/18 04:18:10;;;;;;;;;;;20.60;84.60;;;;;;5072782;28;19978;-63
2022/09/18 04:20:35;;;;;;;;;;;20.70;84.60;;;;;;5069708;28;20290;-63
2022/09/18 04:23:01;;;;;;;;;;;21.00;84.80;;;;;;5072319;28;19931;-62
2022/09/18 04:25:26;;;;;;;;;;;20.70;84.60;;;;;;5071880;28;19925;-62
2022/09/18 04:27:52;;;;;;;;;;;20.60;84.40;;;;;;5060735;28;19924;-63
2022/09/18 04:30:18;;;;;;;;;;;20.60;84.50;;;;;;5062241;28;19925;-63
2022/09/18 04:32:44;;;;;;;;;;;20.30;84.30;;;;;;5066796;28;19939;-63
2022/09/18 04:35:10;;;;;;;;;;;20.60;84.60;;;;;;5073957;28;20019;-63
2022/09/18 04:37:35;;;;;;;;;;;20.60;84.60;;;;;;5074388;28;19979;-62
2022/09/18 04:40:01;;;;;;;;;;;20.60;84.50;;;;;;5073205;28;19924;-62
2022/09/18 04:42:27;;;;;;;;;;;20.40;84.40;;;;;;5076744;28;20366;-62
2022/09/18 04:44:52;;;;;;;;;;;20.90;84.80;;;;;;5077308;28;19928;-62
2022/09/18 04:47:18;;;;;;;;;;;20.70;84.70;;;;;;5076003;28;19935;-63
2022/09/18 04:49:44;;;;;;;;;;;20.50;84.60;;;;;;5077611;28;19925;-63
2022/09/18 04:52:09;;;;;;;;;;;20.40;84.60;;;;;;5060918;28;19935;-65
2022/09/18 04:54:36;;;;;;;;;;;20.60;84.70;;;;;;5059170;28;20391;-64
2022/09/18 04:57:02;;;;;;;;;;;20.70;84.80;;;;;;5075389;28;20427;-62
2022/09/18 04:59:28;;;;;;;;;;;20.50;84.60;;;;;;5075128;28;20003;-62
2022/09/18 05:01:53;;;;;;;;;;;20.50;84.60;;;;;;5074120;28;19931;-63
2022/09/18 05:04:19;;;;;;;;;;;20.60;84.80;;;;;;5074329;28;19948;-62
2022/09/18 05:06:45;;;;;;;;;;;20.60;84.80;;;;;;5075202;28;19924;-62
2022/09/18 05:09:11;;;;;;;;;;;20.70;84.80;;;;;;5074964;28;19931;-62
2022/09/18 05:11:37;;;;;;;;;;;20.40;84.70;;;;;;5076388;28;19931;-63
2022/09/18 05:14:03;;;;;;;;;;;20.50;84.80;;;;;;5073551;28;19928;-63
2022/09/18 05:16:28;;;;;;;;;;;20.70;85.00;;;;;;5076832;28;19924;-63
2022/09/18 05:18:54;;;;;;;;;;;20.40;84.80;;;;;;5077112;28;19947;-63
2022/09/18 05:21:20;;;;;;;;;;;20.30;84.80;;;;;;5074925;28;19928;-62
2022/09/18 05:23:46;;;;;;;;;;;20.50;85.00;;;;;;5074938;28;19924;-67
2022/09/18 05:26:12;;;;;;;;;;;20.60;85.00;;;;;;5072577;28;19991;-66
2022/09/18 05:28:38;;;;;;;;;;;20.50;85.00;;;;;;5061577;28;20467;-65
2022/09/18 05:31:03;;;;;;;;;;;20.80;85.20;;;;;;5072674;28;19931;-62
2022/09/18 05:33:30;;;;;;;;;;;20.70;85.10;;;;;;5075920;28;19936;-63
2022/09/18 05:35:56;;;;;;;;;;;20.60;85.00;;;;;;5074690;28;19932;-62
2022/09/18 05:38:22;;;;;;;;;;;20.60;85.10;;;;;;5075785;28;19928;-62
2022/09/18 05:40:47;;;;;;;;;;;20.50;85.00;;;;;;5073013;28;19946;-62
2022/09/18 05:43:13;;;;;;;;;;;20.70;85.10;;;;;;5075491;28;19925;-63
2022/09/18 05:45:39;;;;;;;;;;;20.80;85.10;;;;;;5071847;28;20157;-63
2022/09/18 05:48:05;;;;;;;;;;;20.40;85.00;;;;;;5069285;28;19968;-62
2022/09/18 05:50:31;;;;;;;;;;;20.70;85.10;;;;;;5056132;28;19932;-63
2022/09/18 05:52:57;;;;;;;;;;;20.40;84.90;;;;;;5075932;28;19931;-62
2022/09/18 05:55:23;;;;;;;;;;;20.90;85.10;;;;;;5071142;28;19963;-62
2022/09/18 05:57:52;;;;;;;;;;;20.50;84.90;;;;;;5070979;28;19986;-62
2022/09/18 06:00:18;;;;;;;;;;;20.40;84.90;;;;;;5071794;28;20390;-62
2022/09/18 06:02:51;;;;;;;;;;;20.60;85.10;;;;;;5074745;28;19925;-62
2022/09/18 06:05:16;;;;;;;;;;;20.60;85.10;;;;;;5072622;28;20289;-63
2022/09/18 06:07:42;;;;;;;;;;;20.60;85.00;;;;;;5072125;28;20015;-63
2022/09/18 06:10:08;;;;;;;;;;;20.60;85.10;;;;;;5075109;28;19920;-63
2022/09/18 06:12:34;;;;;;;;;;;20.70;85.20;;;;;;5074517;28;19924;-62
2022/09/18 06:14:59;;;;;;;;;;;20.70;85.20;;;;;;5072613;28;19924;-63
2022/09/18 06:17:25;;;;;;;;;;;20.60;85.10;;;;;;5071689;28;19939;-64
2022/09/18 06:19:51;;;;;;;;;;;20.40;85.00;;;;;;5074261;28;20329;-66
2022/09/18 06:22:16;;;;;;;;;;;20.30;85.00;;;;;;5072554;28;19924;-65
2022/09/18 06:24:42;;;;;;;;;;;20.70;85.30;;;;;;5075042;28;19924;-67
2022/09/18 06:27:08;;;;;;;;;;;20.40;85.10;;;;;;5067957;28;19928;-64
2022/09/18 06:29:33;;;;;;;;;;;20.50;85.10;;;;;;5071682;28;20333;-65
2022/09/18 06:31:59;;;;;;;;;;;20.20;85.00;;;;;;5060608;28;19968;-65
2022/09/18 06:34:25;;;;;;;;;;;20.80;85.30;;;;;;5075365;28;19920;-66
2022/09/18 06:36:50;;;;;;;;;;;20.60;85.20;;;;;;5073304;28;19924;-65
2022/09/18 06:39:16;;;;;;;;;;;20.60;85.10;;;;;;5067723;28;20011;-62
2022/09/18 06:41:42;;;;;;;;;;;20.30;85.00;;;;;;5072996;28;19920;-62
2022/09/18 06:44:07;;;;;;;;;;;20.80;85.30;;;;;;5073774;28;19931;-62
2022/09/18 06:46:34;;;;;;;;;;;20.60;85.20;;;;;;5074499;28;20008;-62
2022/09/18 06:49:00;;;;;;;;;;;20.60;85.20;;;;;;5072272;28;19932;-64
2022/09/18 06:51:25;;;;;;;;;;;20.80;85.30;;;;;;5074317;28;20324;-63
2022/09/18 06:53:51;;;;;;;;;;;20.80;85.40;;;;;;5070781;28;19977;-62
2022/09/18 06:56:16;;;;;;;;;;;20.40;85.10;;;;;;5074357;28;19924;-62
2022/09/18 06:58:42;;;;;;;;;;;20.60;85.30;;;;;;5072891;28;19924;-62
2022/09/18 07:01:08;;;;;;;;;;;20.40;85.10;;;;;;5072798;28;19924;-63
2022/09/18 07:03:34;;;;;;;;;;;20.50;85.10;;;;;;5072969;28;19933;-63
2022/09/18 07:05:59;;;;;;;;;;;20.70;85.30;;;;;;5072581;28;19936;-63
2022/09/18 07:08:25;;;;;;;;;;;20.50;85.20;;;;;;5074728;28;19925;-64
2022/09/18 07:10:51;;;;;;;;;;;20.50;85.20;;;;;;5072878;28;19925;-62
2022/09/18 07:13:17;;;;;;;;;;;20.60;85.20;;;;;;5073003;28;19998;-62
2022/09/18 07:15:45;;;;;;;;;;;20.60;85.30;;;;;;5073871;28;20378;-62
2022/09/18 07:18:10;;;;;;;;;;;20.60;85.30;;;;;;5069924;28;20336;-62
2022/09/18 07:20:36;;;;;;;;;;;20.60;85.30;;;;;;5072417;28;19969;-62
2022/09/18 07:23:02;;;;;;;;;;;20.50;85.20;;;;;;5073126;28;20305;-63
2022/09/18 07:25:28;;;;;;;;;;;20.70;85.40;;;;;;5073304;28;20005;-64
2022/09/18 07:27:54;;;;;;;;;;;20.60;85.30;;;;;;5064482;28;19928;-63
2022/09/18 07:30:20;;;;;;;;;;;20.80;85.40;;;;;;5073435;28;20007;-63
2022/09/18 07:32:46;;;;;;;;;;;20.50;85.20;;;;;;5072184;28;19991;-62
2022/09/18 07:35:12;;;;;;;;;;;20.60;85.30;;;;;;5073278;28;19921;-62
2022/09/18 07:37:37;;;;;;;;;;;20.50;85.20;;;;;;5073498;28;19925;-62
2022/09/18 07:40:04;;;;;;;;;;;;;;;;;;5068144;28;20437;-63
2022/09/18 07:42:29;;;;;;;;;;;20.60;85.20;;;;;;5070952;28;19936;-63
2022/09/18 07:44:55;;;;;;;;;;;20.70;85.30;;;;;;5072757;28;19925;-63
2022/09/18 07:47:21;;;;;;;;;;;20.60;85.30;;;;;;5071886;28;19933;-63
2022/09/18 07:49:47;;;;;;;;;;;20.60;85.30;;;;;;5069949;28;19966;-64
2022/09/18 07:52:12;;;;;;;;;;;20.40;85.30;;;;;;5071053;28;19924;-63
2022/09/18 07:54:38;;;;;;;;;;;20.70;85.50;;;;;;5071110;28;19921;-65
2022/09/18 07:57:04;;;;;;;;;;;20.40;85.40;;;;;;5072417;28;19924;-64
2022/09/18 07:59:29;;;;;;;;;;;20.80;85.60;;;;;;5071065;28;19985;-69
2022/09/18 08:01:55;;;;;;;;;;;20.90;85.70;;;;;;5072903;28;19930;-63
2022/09/18 08:04:21;;;;;;;;;;;20.60;85.00;;;;;;5068597;28;20400;-64
2022/09/18 08:06:53;;;;;;;;;;;20.80;85.60;;;;;;5070204;28;19928;-63
2022/09/18 08:09:19;;;;;;;;;;;20.70;85.60;;;;;;5070185;28;19981;-66
2022/09/18 08:11:45;;;;;;;;;;;20.60;85.50;;;;;;5063626;28;20379;-64
2022/09/18 08:14:11;;;;;;;;;;;20.80;85.70;;;;;;5069095;28;20066;-63
2022/09/18 08:16:37;;;;;;;;;;;20.50;85.60;;;;;;5072280;28;20024;-68
2022/09/18 08:19:02;;;;;;;;;;;20.60;85.70;;;;;;5073836;28;19924;-62
2022/09/18 08:21:29;;;;;;;;;;;20.70;85.70;;;;;;5054812;28;19932;-66
2022/09/18 08:23:54;;;;;;;;;;;20.40;85.70;;;;;;5074597;28;19930;-63
2022/09/18 08:26:20;;;;;;;;;;;20.70;85.80;;;;;;5065631;28;20396;-70
2022/09/18 08:28:46;;;;;;;;;;;21.10;86.00;;;;;;5055968;28;19925;-71
2022/09/18 08:31:12;;;;;;;;;;;20.90;85.90;;;;;;5058607;28;19932;-71
2022/09/18 08:33:37;;;;;;;;;;;20.70;85.70;;;;;;5056815;28;19925;-72
2022/09/18 08:36:03;;;;;;;;;;;20.60;85.60;;;;;;5063764;28;19970;-71
2022/09/18 08:38:29;;;;;;;;;;;20.60;85.70;;;;;;5062444;28;19974;-72
2022/09/18 08:40:55;;;;;;;;;;;20.80;85.80;;;;;;5059528;28;20345;-63
2022/09/18 08:43:26;;;;;;;;;;;20.70;85.70;;;;;;5062069;28;20420;-71
2022/09/18 08:45:57;;;;;;;;;;;20.80;85.70;;;;;;5068194;28;19929;-70
2022/09/18 08:48:23;;;;;;;;;;;;;;;;;;5067252;28;19925;-65
2022/09/18 08:50:53;;;;;;;;;;;20.80;85.70;;;;;;5062799;28;19929;-64
2022/09/18 08:53:20;;;;;;;;;;;20.80;85.90;;;;;;5052443;28;20015;-65
2022/09/18 08:55:46;;;;;;;;;;;;;;;;;;5035696;28;19927;-63
2022/09/18 08:58:13;;;;;;;;;;;20.60;85.70;;;;;;5062377;28;19924;-62
2022/09/18 09:00:40;;;;;;;;;;;20.90;85.90;;;;;;5053050;28;19936;-63
2022/09/18 09:03:25;;;;;;;;;;;21.00;85.90;;;;;;5069855;28;19932;-63
2022/09/18 09:05:56;;;;;;;;;;;20.70;85.70;;;;;;5062628;28;19975;-63
2022/09/18 09:08:31;;;;;;;;;;;21.00;85.90;;;;;;5059211;28;19929;-63
2022/09/18 09:11:09;;;;;;;;;;;20.80;85.70;;;;;;5055552;28;19957;-62
2022/09/18 09:13:49;;;;;;;;;;;20.90;85.90;;;;;;5054269;28;20294;-63
2022/09/18 09:16:17;;;;;;;;;;;20.90;85.90;;;;;;5060080;28;19925;-63
2022/09/18 09:18:47;;;;;;;;;;;20.70;85.80;;;;;;5069628;28;20458;-63
2022/09/18 09:21:16;;;;;;;;;;;20.80;85.70;;;;;;5050386;28;20027;-63
2022/09/18 09:23:49;;;;;;;;;;;21.00;85.70;;;;;;5070057;28;20270;-62
2022/09/18 09:26:16;;;;;;;;;;;20.90;85.60;;;;;;5058660;28;19931;-63
2022/09/18 09:28:47;;;;;;;;;;;20.90;85.60;;;;;;5066249;28;19924;-63
2022/09/18 09:31:13;;;;;;;;;;;20.90;85.60;;;;;;5064301;28;19925;-63
2022/09/18 09:33:41;;;;;;;;;;;20.80;85.50;;;;;;5086838;28;19936;-63
2022/09/18 09:36:10;;;;;;;;;;;21.10;85.70;;;;;;5057728;28;20409;-63
2022/09/18 09:38:45;;;;;;;;;;;21.00;85.60;;;;;;5059008;28;19968;-63
2022/09/18 09:41:17;;;;;;;;;;;20.90;85.50;;;;;;5065863;28;19924;-63
2022/09/18 09:43:48;;;;;;;;;;;21.00;85.50;;;;;;5066006;28;22212;-69
2022/09/18 09:46:20;;;;;;;;;;;20.90;85.50;;;;;;5059949;28;19931;-63
2022/09/18 09:48:49;;;;;;;;;;;20.90;85.50;;;;;;5064309;28;19925;-63
2022/09/18 09:51:22;;;;;;;;;;;21.00;85.50;;;;;;5073124;28;19938;-63
2022/09/18 09:53:47;;;;;;;;;;;21.00;85.50;;;;;;5074178;28;20011;-67
2022/09/18 09:56:19;;;;;;;;;;;21.20;85.40;;;;;;5056628;28;20016;-62
2022/09/18 09:58:44;;;;;;;;;;;21.00;85.30;;;;;;5040120;28;19973;-65
2022/09/18 10:01:40;;;;;;;;;;;21.20;85.40;;;;;;5074642;28;20307;-63
2022/09/18 10:04:11;;;;;;;;;;;21.30;85.40;;;;;;4996359;28;19962;-68
2022/09/18 10:06:46;;;;;;;;;;;21.10;85.30;;;;;;4998936;28;19956;-63
2022/09/18 10:09:21;;;;;;;;;;;20.80;85.00;;;;;;4979686;28;19929;-71
2022/09/18 10:11:51;;;;;;;;;;;21.10;85.00;;;;;;5010568;28;19976;-65
2022/09/18 10:14:18;;;;;;;;;;;21.20;85.00;;;;;;4987276;28;19973;-65
2022/09/18 10:16:47;;;;;;;;;;;21.10;84.80;;;;;;5013841;28;19945;-62
2022/09/18 10:19:14;;;;;;;;;;;21.10;84.70;;;;;;5013937;28;19983;-62
2022/09/18 10:21:39;;;;;;;;;;;21.20;84.60;;;;;;4996796;28;20332;-62
2022/09/18 10:24:25;;;;;;;;;;;21.20;84.60;;;;;;4996521;28;19941;-63
2022/09/18 10:26:52;;;;;;;;;;;21.10;84.60;;;;;;4997486;28;20008;-63
2022/09/18 10:29:18;;;;;;;;;;;21.20;84.50;;;;;;4981185;28;20383;-63
2022/09/18 10:31:48;;;;;;;;;;;21.20;84.50;;;;;;4997463;28;20016;-62
2022/09/18 10:34:29;;;;;;;;;;;21.00;84.40;;;;;;5010380;28;20064;-62
2022/09/18 10:36:55;;;;;;;;;;;21.20;84.50;;;;;;5013674;28;19980;-62
2022/09/18 10:39:45;;;;;;;;;;;21.40;84.60;;;;;;5015033;28;19926;-63
2022/09/18 10:42:13;;;;;;;;;;;21.30;84.60;;;;;;5054429;28;19950;-66
2022/09/18 10:44:41;;;;;;;;;;;21.20;84.40;;;;;;5055527;28;19928;-65
2022/09/18 10:47:08;;;;;;;;;;;21.30;84.40;;;;;;5074646;28;19924;-68
2022/09/18 10:49:34;;;;;;;;;;;21.40;84.90;;;;;;5057400;28;19971;-66
2022/09/18 10:52:19;;;;;;;;;;;21.40;84.50;;;;;;5073744;28;19924;-62
2022/09/18 10:54:59;;;;;;;;;;;21.10;84.40;;;;;;5040533;28;19924;-62
2022/09/18 10:57:25;;;;;;;;;;;;;;;;;;5053713;28;20024;-64
2022/09/18 10:59:51;;;;;;;;;;;;;;;;;;5053881;28;20062;-62
2022/09/18 11:02:19;;;;;;;;;;;21.10;84.20;;;;;;5054635;28;19924;-62
2022/09/18 11:04:46;;;;;;;;;;;21.40;84.30;;;;;;5055050;28;20025;-63
2022/09/18 11:07:12;;;;;;;;;;;21.10;84.10;;;;;;5071772;28;19966;-63
2022/09/18 11:09:39;;;;;;;;;;;21.20;84.20;;;;;;5073756;28;19972;-68
2022/09/18 11:12:10;;;;;;;;;;;21.40;84.10;;;;;;5073440;28;19924;-70
2022/09/18 11:14:40;;;;;;;;;;;21.30;84.00;;;;;;5073696;28;19964;-63
2022/09/18 11:17:06;;;;;;;;;;;21.40;83.70;;;;;;5055765;28;19931;-63
2022/09/18 11:19:32;;;;;;;;;;;21.60;83.50;;;;;;5073623;28;19925;-64
2022/09/18 11:22:00;;;;;;;;;;;21.60;83.80;;;;;;5073096;28;20301;-63
2022/09/18 11:24:27;;;;;;;;;;;21.30;83.70;;;;;;5075050;28;19931;-62
2022/09/18 11:26:53;;;;;;;;;;;21.60;83.50;;;;;;5070995;28;19920;-62
2022/09/18 11:29:24;;;;;;;;;;;21.60;83.40;;;;;;5071648;28;19935;-62
2022/09/18 11:31:51;;;;;;;;;;;21.50;83.40;;;;;;5073405;28;20007;-62
2022/09/18 11:34:20;;;;;;;;;;;21.70;83.50;;;;;;5074242;28;19920;-62
2022/09/18 11:36:46;;;;;;;;;;;21.60;83.20;;;;;;5074528;28;20079;-62
2022/09/18 11:39:13;;;;;;;;;;;21.80;83.10;;;;;;5070431;28;19921;-62
2022/09/18 11:41:39;;;;;;;;;;;21.50;83.20;;;;;;5074026;28;19928;-62
2022/09/18 11:44:14;;;;;;;;;;;21.80;83.10;;;;;;5071639;28;19931;-62
2022/09/18 11:46:56;;;;;;;;;;;21.70;83.20;;;;;;5071697;28;20024;-62
2022/09/18 11:49:25;;;;;;;;;;;21.60;83.10;;;;;;5071342;28;19977;-71
2022/09/18 11:51:55;;;;;;;;;;;21.60;83.40;;;;;;5061470;28;19959;-63
2022/09/18 11:54:24;;;;;;;;;;;21.80;83.20;;;;;;5066413;28;19978;-62
2022/09/18 11:56:50;;;;;;;;;;;21.80;82.70;;;;;;5053960;28;19976;-62
2022/09/18 11:59:23;;;;;;;;;;;21.70;83.10;;;;;;5053778;28;19932;-63
2022/09/18 12:01:51;;;;;;;;;;;21.70;82.80;;;;;;5052764;28;20020;-63
2022/09/18 12:04:30;;;;;;;;;;;21.90;83.00;;;;;;5051899;28;20294;-66
2022/09/18 12:07:12;;;;;;;;;;;22.00;81.90;;;;;;5069278;28;19925;-64
2022/09/18 12:09:42;;;;;;;;;;;21.90;81.60;;;;;;5053725;28;19931;-64
2022/09/18 12:12:11;;;;;;;;;;;21.90;82.60;;;;;;5069102;28;19931;-64
2022/09/18 12:14:40;;;;;;;;;;;22.20;82.80;;;;;;5072681;28;19924;-67
2022/09/18 12:17:09;;;;;;;;;;;21.80;81.60;;;;;;5072798;28;19986;-64
2022/09/18 12:19:36;;;;;;;;;;;22.00;81.80;;;;;;5073708;28;19924;-65
2022/09/18 12:22:20;;;;;;;;;;;21.90;83.10;;;;;;5072602;28;19948;-64
2022/09/18 12:24:46;;;;;;;;;;;21.90;81.70;;;;;;5073959;28;19931;-65
2022/09/18 12:27:31;;;;;;;;;;;21.80;82.50;;;;;;5072749;28;20440;-66
2022/09/18 12:30:10;;;;;;;;;;;21.70;81.50;;;;;;5073783;28;19925;-64
2022/09/18 12:32:53;;;;;;;;;;;22.20;81.60;;;;;;5074266;28;19924;-66
2022/09/18 12:35:34;;;;;;;;;;;22.00;81.70;;;;;;5073879;28;20367;-68
2022/09/18 12:37:59;;;;;;;;;;;21.80;82.50;;;;;;5073835;28;19928;-65
2022/09/18 12:40:35;;;;;;;;;;;21.70;82.40;;;;;;5073753;28;20345;-64
2022/09/18 12:43:24;;;;;;;;;;;21.70;82.60;;;;;;5072442;28;19925;-63
2022/09/18 12:46:09;;;;;;;;;;;21.70;82.60;;;;;;5072537;28;19932;-63
2022/09/18 12:48:45;;;;;;;;;;;21.70;82.70;;;;;;5073361;28;19931;-64
2022/09/18 12:51:10;;;;;;;;;;;21.90;82.60;;;;;;5073375;28;19925;-63
2022/09/18 12:53:42;;;;;;;;;;;21.80;82.70;;;;;;5073215;28;20062;-63
2022/09/18 12:56:15;;;;;;;;;;;21.70;82.70;;;;;;5075204;28;20023;-63
2022/09/18 12:58:47;;;;;;;;;;;21.80;82.60;;;;;;5076782;28;19928;-62
2022/09/18 13:01:39;;;;;;;;;;;21.80;81.70;;;;;;5075694;28;19966;-62
2022/09/18 13:04:22;;;;;;;;;;;21.60;82.70;;;;;;5074403;28;19925;-62
2022/09/18 13:07:07;;;;;;;;;;;21.70;83.00;;;;;;5075825;28;19931;-61
2022/09/18 13:09:34;;;;;;;;;;;21.60;83.00;;;;;;5075088;28;20385;-61
2022/09/18 13:12:01;;;;;;;;;;;21.80;83.20;;;;;;5076649;28;20027;-62
2022/09/18 13:14:44;;;;;;;;;;;21.70;83.60;;;;;;5076020;28;19931;-61
2022/09/18 13:17:11;;;;;;;;;;;21.80;83.30;;;;;;5074496;28;19935;-66
2022/09/18 13:19:38;;;;;;;;;;;21.50;83.20;;;;;;5075999;28;20336;-62
2022/09/18 13:22:05;;;;;;;;;;;21.80;83.40;;;;;;5061621;28;20023;-67
2022/09/18 13:24:34;;;;;;;;;;;21.70;83.40;;;;;;5055870;28;19932;-62
2022/09/18 13:27:05;;;;;;;;;;;21.60;83.40;;;;;;5055487;28;19926;-67
2022/09/18 13:29:50;;;;;;;;;;;21.80;83.50;;;;;;5056945;28;19955;-62
2022/09/18 13:32:38;;;;;;;;;;;21.70;83.50;;;;;;5057544;28;20007;-72
2022/09/18 13:35:13;;;;;;;;;;;21.70;83.80;;;;;;5023756;28;19925;-62
2022/09/18 13:37:39;;;;;;;;;;;21.70;83.90;;;;;;5034413;28;19929;-63
2022/09/18 13:40:25;;;;;;;;;;;21.60;83.80;;;;;;5018023;28;19975;-66
2022/09/18 13:42:50;;;;;;;;;;;21.70;83.90;;;;;;5021034;28;19925;-69
2022/09/18 13:45:17;;;;;;;;;;;21.80;84.00;;;;;;5014472;28;20044;-62
2022/09/18 13:47:58;;;;;;;;;;;21.70;84.00;;;;;;5014584;28;19979;-75
2022/09/18 13:50:23;;;;;;;;;;;21.60;83.90;;;;;;5014517;28;20303;-67
2022/09/18 13:52:51;;;;;;;;;;;21.60;83.80;;;;;;5020823;28;19929;-63
2022/09/18 13:55:21;;;;;;;;;;;21.60;83.80;;;;;;5029819;28;19925;-74
2022/09/18 13:57:47;;;;;;;;;;;21.80;83.90;;;;;;5033607;28;20444;-74
2022/09/18 14:00:19;;;;;;;;;;;21.70;83.90;;;;;;5033956;28;19925;-67
2022/09/18 14:03:10;;;;;;;;;;;21.70;83.70;;;;;;5018173;28;19934;-74
2022/09/18 14:05:39;;;;;;;;;;;21.70;82.90;;;;;;4997838;28;20515;-73
2022/09/18 14:08:23;;;;;;;;;;;21.70;82.70;;;;;;4981744;28;19932;-73
2022/09/18 14:10:54;;;;;;;;;;;21.50;82.70;;;;;;5014138;28;20425;-74
2022/09/18 14:13:27;;;;;;;;;;;21.70;83.70;;;;;;5070894;28;20108;-71
2022/09/18 14:15:53;;;;;;;;;;;21.60;83.70;;;;;;5074531;28;19931;-63
2022/09/18 14:18:27;;;;;;;;;;;21.70;83.70;;;;;;5076070;28;19932;-63
2022/09/18 14:20:57;;;;;;;;;;;21.50;83.40;;;;;;5075717;28;19931;-63
2022/09/18 14:23:35;;;;;;;;;;;21.70;83.60;;;;;;5075839;28;20015;-63
2022/09/18 14:26:01;;;;;;;;;;;21.60;83.50;;;;;;5071094;28;20073;-62
2022/09/18 14:28:29;;;;;;;;;;;21.70;83.50;;;;;;5074425;28;20011;-65
2022/09/18 14:31:08;;;;;;;;;;;21.80;83.50;;;;;;5075831;28;19933;-61